Weather at Turin Airport

Public forecast

Using degrees Celsius for public forecast. Weather courtesy of forecast.io.

Current aviation weather report (METAR) for Turin Airport

2024/06/14 11:50 (retrieved 21 minutes ago)

LIMF 141150Z VRB05KT 9999 SCT030 BKN050 21/13 Q1016

Aviation forecast (TAF) for Turin Airport

2024/06/14 12:22 (retrieved 0 seconds ago)

TAF LIMF 141100Z 1412/1512 VRB06KT CAVOK